sensor_id;sensor_type;location;lat;lon;timestamp;P1;durP1;ratioP1;P2;durP2;ratioP2
39848;SDS011;25518;47.878;15.914;2024-02-26T00:05:59;1.08;;;0.45;;
39848;SDS011;25518;47.878;15.914;2024-02-26T00:09:27;2.78;;;1.17;;
39848;SDS011;25518;47.878;15.914;2024-02-26T00:12:45;1.98;;;0.70;;
39848;SDS011;25518;47.878;15.914;2024-02-26T00:15:58;1.40;;;0.70;;
39848;SDS011;25518;47.878;15.914;2024-02-26T00:18:53;3.50;;;0.57;;
39848;SDS011;25518;47.878;15.914;2024-02-26T00:21:47;2.30;;;0.60;;
39848;SDS011;25518;47.878;15.914;2024-02-26T00:24:41;2.60;;;0.60;;
39848;SDS011;25518;47.878;15.914;2024-02-26T00:27:35;1.38;;;0.57;;
39848;SDS011;25518;47.878;15.914;2024-02-26T00:30:28;2.28;;;0.73;;
39848;SDS011;25518;47.878;15.914;2024-02-26T00:33:22;1.92;;;0.50;;
39848;SDS011;25518;47.878;15.914;2024-02-26T00:36:17;0.75;;;0.60;;
39848;SDS011;25518;47.878;15.914;2024-02-26T00:39:11;1.77;;;1.05;;
39848;SDS011;25518;47.878;15.914;2024-02-26T00:42:05;2.00;;;0.65;;
39848;SDS011;25518;47.878;15.914;2024-02-26T00:44:59;3.15;;;0.60;;
39848;SDS011;25518;47.878;15.914;2024-02-26T00:47:53;1.50;;;0.60;;
39848;SDS011;25518;47.878;15.914;2024-02-26T00:50:48;2.45;;;0.57;;
39848;SDS011;25518;47.878;15.914;2024-02-26T00:53:42;0.98;;;0.50;;
39848;SDS011;25518;47.878;15.914;2024-02-26T00:56:36;2.00;;;0.73;;
39848;SDS011;25518;47.878;15.914;2024-02-26T00:59:30;2.87;;;0.70;;
39848;SDS011;25518;47.878;15.914;2024-02-26T01:02:25;0.98;;;0.47;;
39848;SDS011;25518;47.878;15.914;2024-02-26T01:05:20;1.60;;;0.50;;
39848;SDS011;25518;47.878;15.914;2024-02-26T01:08:14;0.95;;;0.50;;
39848;SDS011;25518;47.878;15.914;2024-02-26T01:11:08;1.60;;;0.40;;
39848;SDS011;25518;47.878;15.914;2024-02-26T01:14:03;2.60;;;0.52;;
39848;SDS011;25518;47.878;15.914;2024-02-26T01:16:57;1.15;;;0.52;;
39848;SDS011;25518;47.878;15.914;2024-02-26T01:19:51;1.00;;;0.52;;
39848;SDS011;25518;47.878;15.914;2024-02-26T01:22:45;1.83;;;0.60;;
39848;SDS011;25518;47.878;15.914;2024-02-26T01:25:40;1.60;;;0.70;;
39848;SDS011;25518;47.878;15.914;2024-02-26T01:28:36;1.70;;;0.52;;
39848;SDS011;25518;47.878;15.914;2024-02-26T01:32:20;0.70;;;0.40;;
39848;SDS011;25518;47.878;15.914;2024-02-26T01:35:01;0.95;;;0.60;;
39848;SDS011;25518;47.878;15.914;2024-02-26T01:37:56;0.75;;;0.50;;
39848;SDS011;25518;47.878;15.914;2024-02-26T01:40:51;1.30;;;0.60;;
39848;SDS011;25518;47.878;15.914;2024-02-26T01:43:46;1.10;;;0.30;;
39848;SDS011;25518;47.878;15.914;2024-02-26T01:46:40;0.60;;;0.40;;
39848;SDS011;25518;47.878;15.914;2024-02-26T01:53:05;2.27;;;0.67;;
39848;SDS011;25518;47.878;15.914;2024-02-26T01:56:00;0.50;;;0.38;;
39848;SDS011;25518;47.878;15.914;2024-02-26T01:58:54;0.88;;;0.55;;
39848;SDS011;25518;47.878;15.914;2024-02-26T02:02:34;1.10;;;0.65;;
39848;SDS011;25518;47.878;15.914;2024-02-26T02:05:19;0.93;;;0.60;;
39848;SDS011;25518;47.878;15.914;2024-02-26T02:08:15;1.00;;;0.55;;
39848;SDS011;25518;47.878;15.914;2024-02-26T02:11:11;2.50;;;0.88;;
39848;SDS011;25518;47.878;15.914;2024-02-26T02:14:06;0.77;;;0.50;;
39848;SDS011;25518;47.878;15.914;2024-02-26T02:16:59;0.75;;;0.50;;
39848;SDS011;25518;47.878;15.914;2024-02-26T02:19:53;3.00;;;0.43;;
39848;SDS011;25518;47.878;15.914;2024-02-26T02:22:47;0.55;;;0.32;;
39848;SDS011;25518;47.878;15.914;2024-02-26T02:25:41;1.50;;;0.40;;
39848;SDS011;25518;47.878;15.914;2024-02-26T02:28:34;1.70;;;0.40;;
39848;SDS011;25518;47.878;15.914;2024-02-26T02:31:28;1.67;;;0.67;;
39848;SDS011;25518;47.878;15.914;2024-02-26T02:34:22;1.27;;;0.50;;
39848;SDS011;25518;47.878;15.914;2024-02-26T02:37:17;0.55;;;0.30;;
39848;SDS011;25518;47.878;15.914;2024-02-26T02:40:12;0.50;;;0.30;;
39848;SDS011;25518;47.878;15.914;2024-02-26T02:43:06;0.43;;;0.30;;
39848;SDS011;25518;47.878;15.914;2024-02-26T02:45:59;1.70;;;0.77;;
39848;SDS011;25518;47.878;15.914;2024-02-26T02:48:54;0.90;;;0.50;;
39848;SDS011;25518;47.878;15.914;2024-02-26T02:51:48;0.60;;;0.30;;
39848;SDS011;25518;47.878;15.914;2024-02-26T02:54:41;0.65;;;0.47;;
39848;SDS011;25518;47.878;15.914;2024-02-26T02:57:36;1.58;;;0.60;;
39848;SDS011;25518;47.878;15.914;2024-02-26T03:00:32;0.82;;;0.55;;
39848;SDS011;25518;47.878;15.914;2024-02-26T03:03:26;1.20;;;0.90;;
39848;SDS011;25518;47.878;15.914;2024-02-26T03:06:21;0.40;;;0.37;;
39848;SDS011;25518;47.878;15.914;2024-02-26T03:09:18;0.35;;;0.30;;
39848;SDS011;25518;47.878;15.914;2024-02-26T03:12:13;1.65;;;0.43;;
39848;SDS011;25518;47.878;15.914;2024-02-26T03:15:12;2.20;;;0.55;;
39848;SDS011;25518;47.878;15.914;2024-02-26T03:18:06;1.27;;;0.40;;
39848;SDS011;25518;47.878;15.914;2024-02-26T03:21:02;0.57;;;0.30;;
39848;SDS011;25518;47.878;15.914;2024-02-26T03:23:59;1.30;;;0.68;;
39848;SDS011;25518;47.878;15.914;2024-02-26T03:26:55;0.63;;;0.43;;
39848;SDS011;25518;47.878;15.914;2024-02-26T03:40:23;0.90;;;0.40;;
39848;SDS011;25518;47.878;15.914;2024-02-26T03:43:17;1.70;;;0.55;;
39848;SDS011;25518;47.878;15.914;2024-02-26T03:46:12;0.75;;;0.35;;
39848;SDS011;25518;47.878;15.914;2024-02-26T03:49:13;1.50;;;0.70;;
39848;SDS011;25518;47.878;15.914;2024-02-26T03:52:07;0.47;;;0.40;;
39848;SDS011;25518;47.878;15.914;2024-02-26T03:55:00;1.05;;;0.52;;
39848;SDS011;25518;47.878;15.914;2024-02-26T03:57:55;1.52;;;0.57;;
39848;SDS011;25518;47.878;15.914;2024-02-26T04:00:50;0.60;;;0.40;;
39848;SDS011;25518;47.878;15.914;2024-02-26T04:03:45;0.63;;;0.47;;
39848;SDS011;25518;47.878;15.914;2024-02-26T04:06:39;2.33;;;0.40;;
39848;SDS011;25518;47.878;15.914;2024-02-26T04:09:34;0.88;;;0.50;;
39848;SDS011;25518;47.878;15.914;2024-02-26T04:12:29;1.48;;;0.60;;
39848;SDS011;25518;47.878;15.914;2024-02-26T04:15:22;1.40;;;0.90;;
39848;SDS011;25518;47.878;15.914;2024-02-26T04:18:16;0.98;;;0.43;;
39848;SDS011;25518;47.878;15.914;2024-02-26T04:21:11;1.10;;;0.70;;
39848;SDS011;25518;47.878;15.914;2024-02-26T04:24:05;1.75;;;0.63;;
39848;SDS011;25518;47.878;15.914;2024-02-26T04:27:01;2.40;;;0.40;;
39848;SDS011;25518;47.878;15.914;2024-02-26T04:30:02;0.47;;;0.28;;
39848;SDS011;25518;47.878;15.914;2024-02-26T04:32:56;0.80;;;0.50;;
39848;SDS011;25518;47.878;15.914;2024-02-26T04:35:50;0.70;;;0.38;;
39848;SDS011;25518;47.878;15.914;2024-02-26T04:38:44;1.25;;;0.57;;
39848;SDS011;25518;47.878;15.914;2024-02-26T04:41:37;3.55;;;0.45;;
39848;SDS011;25518;47.878;15.914;2024-02-26T04:44:31;1.13;;;0.60;;
39848;SDS011;25518;47.878;15.914;2024-02-26T04:47:30;1.45;;;0.68;;
39848;SDS011;25518;47.878;15.914;2024-02-26T04:50:24;1.30;;;0.60;;
39848;SDS011;25518;47.878;15.914;2024-02-26T04:53:18;1.50;;;0.50;;
39848;SDS011;25518;47.878;15.914;2024-02-26T04:56:13;1.40;;;0.50;;
39848;SDS011;25518;47.878;15.914;2024-02-26T04:59:07;3.05;;;0.80;;
39848;SDS011;25518;47.878;15.914;2024-02-26T05:02:02;2.17;;;0.82;;
39848;SDS011;25518;47.878;15.914;2024-02-26T05:04:55;1.67;;;0.85;;
39848;SDS011;25518;47.878;15.914;2024-02-26T05:07:49;3.28;;;0.93;;
39848;SDS011;25518;47.878;15.914;2024-02-26T05:10:45;3.50;;;1.10;;
39848;SDS011;25518;47.878;15.914;2024-02-26T05:13:38;3.22;;;0.85;;
39848;SDS011;25518;47.878;15.914;2024-02-26T05:16:32;1.08;;;0.43;;
39848;SDS011;25518;47.878;15.914;2024-02-26T05:19:26;1.08;;;0.57;;
39848;SDS011;25518;47.878;15.914;2024-02-26T05:22:22;0.73;;;0.32;;
39848;SDS011;25518;47.878;15.914;2024-02-26T05:25:16;1.88;;;0.50;;
39848;SDS011;25518;47.878;15.914;2024-02-26T05:28:12;1.40;;;0.60;;
39848;SDS011;25518;47.878;15.914;2024-02-26T05:31:08;0.65;;;0.45;;
39848;SDS011;25518;47.878;15.914;2024-02-26T05:34:02;1.50;;;0.80;;
39848;SDS011;25518;47.878;15.914;2024-02-26T05:36:58;2.55;;;0.88;;
39848;SDS011;25518;47.878;15.914;2024-02-26T05:39:51;2.00;;;0.80;;
39848;SDS011;25518;47.878;15.914;2024-02-26T05:42:45;3.10;;;1.20;;
39848;SDS011;25518;47.878;15.914;2024-02-26T05:45:40;2.70;;;1.00;;
39848;SDS011;25518;47.878;15.914;2024-02-26T05:48:34;2.23;;;0.90;;
39848;SDS011;25518;47.878;15.914;2024-02-26T05:51:27;1.17;;;0.50;;
39848;SDS011;25518;47.878;15.914;2024-02-26T05:57:54;1.25;;;0.63;;
39848;SDS011;25518;47.878;15.914;2024-02-26T06:17:43;3.22;;;1.38;;
39848;SDS011;25518;47.878;15.914;2024-02-26T06:20:35;2.95;;;0.90;;
39848;SDS011;25518;47.878;15.914;2024-02-26T06:23:27;3.97;;;0.90;;
39848;SDS011;25518;47.878;15.914;2024-02-26T06:26:19;1.02;;;0.47;;
39848;SDS011;25518;47.878;15.914;2024-02-26T06:29:11;2.10;;;0.70;;
39848;SDS011;25518;47.878;15.914;2024-02-26T06:32:03;2.20;;;0.82;;
39848;SDS011;25518;47.878;15.914;2024-02-26T06:34:57;2.05;;;1.00;;
39848;SDS011;25518;47.878;15.914;2024-02-26T06:37:58;2.80;;;1.10;;
39848;SDS011;25518;47.878;15.914;2024-02-26T06:40:51;2.53;;;0.95;;
39848;SDS011;25518;47.878;15.914;2024-02-26T06:43:43;2.95;;;1.13;;
39848;SDS011;25518;47.878;15.914;2024-02-26T06:46:36;2.30;;;0.80;;
39848;SDS011;25518;47.878;15.914;2024-02-26T06:49:31;1.85;;;0.85;;
39848;SDS011;25518;47.878;15.914;2024-02-26T06:52:23;1.58;;;0.80;;
39848;SDS011;25518;47.878;15.914;2024-02-26T06:55:16;1.40;;;0.40;;
39848;SDS011;25518;47.878;15.914;2024-02-26T06:58:08;1.33;;;0.57;;
39848;SDS011;25518;47.878;15.914;2024-02-26T07:01:00;1.08;;;0.60;;
39848;SDS011;25518;47.878;15.914;2024-02-26T07:03:52;2.03;;;1.00;;
39848;SDS011;25518;47.878;15.914;2024-02-26T07:06:43;0.93;;;0.52;;
39848;SDS011;25518;47.878;15.914;2024-02-26T07:09:37;1.67;;;0.80;;
39848;SDS011;25518;47.878;15.914;2024-02-26T07:12:29;1.00;;;0.60;;
39848;SDS011;25518;47.878;15.914;2024-02-26T07:15:20;1.55;;;0.90;;
39848;SDS011;25518;47.878;15.914;2024-02-26T07:18:12;4.72;;;0.80;;
39848;SDS011;25518;47.878;15.914;2024-02-26T07:21:04;2.10;;;0.85;;
39848;SDS011;25518;47.878;15.914;2024-02-26T07:23:56;1.83;;;0.60;;
39848;SDS011;25518;47.878;15.914;2024-02-26T07:26:48;1.30;;;0.63;;
39848;SDS011;25518;47.878;15.914;2024-02-26T07:29:40;0.93;;;0.40;;
39848;SDS011;25518;47.878;15.914;2024-02-26T07:32:32;2.15;;;0.98;;
39848;SDS011;25518;47.878;15.914;2024-02-26T07:35:23;1.35;;;0.55;;
39848;SDS011;25518;47.878;15.914;2024-02-26T07:38:15;2.35;;;0.68;;
39848;SDS011;25518;47.878;15.914;2024-02-26T07:41:07;1.20;;;0.60;;
39848;SDS011;25518;47.878;15.914;2024-02-26T07:44:00;1.85;;;0.63;;
39848;SDS011;25518;47.878;15.914;2024-02-26T07:46:51;1.38;;;0.60;;
39848;SDS011;25518;47.878;15.914;2024-02-26T07:49:43;2.15;;;0.63;;
39848;SDS011;25518;47.878;15.914;2024-02-26T07:52:35;1.80;;;0.63;;
39848;SDS011;25518;47.878;15.914;2024-02-26T07:55:27;1.40;;;0.43;;
39848;SDS011;25518;47.878;15.914;2024-02-26T07:58:20;0.40;;;0.30;;
39848;SDS011;25518;47.878;15.914;2024-02-26T08:01:14;2.00;;;0.30;;
39848;SDS011;25518;47.878;15.914;2024-02-26T08:04:06;1.92;;;0.80;;
39848;SDS011;25518;47.878;15.914;2024-02-26T08:06:58;2.85;;;0.60;;
39848;SDS011;25518;47.878;15.914;2024-02-26T08:10:30;1.10;;;0.70;;
39848;SDS011;25518;47.878;15.914;2024-02-26T08:13:23;1.23;;;0.60;;
39848;SDS011;25518;47.878;15.914;2024-02-26T08:26:45;2.05;;;0.73;;
39848;SDS011;25518;47.878;15.914;2024-02-26T08:35:43;0.73;;;0.35;;
39848;SDS011;25518;47.878;15.914;2024-02-26T08:38:35;0.52;;;0.40;;
39848;SDS011;25518;47.878;15.914;2024-02-26T08:41:28;0.67;;;0.37;;
39848;SDS011;25518;47.878;15.914;2024-02-26T08:44:30;0.30;;;0.20;;
39848;SDS011;25518;47.878;15.914;2024-02-26T08:47:24;0.97;;;0.30;;
39848;SDS011;25518;47.878;15.914;2024-02-26T08:50:19;0.80;;;0.30;;
39848;SDS011;25518;47.878;15.914;2024-02-26T08:53:14;0.43;;;0.28;;
39848;SDS011;25518;47.878;15.914;2024-02-26T08:56:08;0.60;;;0.20;;
39848;SDS011;25518;47.878;15.914;2024-02-26T09:02:15;0.57;;;0.30;;
39848;SDS011;25518;47.878;15.914;2024-02-26T09:05:11;0.38;;;0.10;;
39848;SDS011;25518;47.878;15.914;2024-02-26T09:08:05;0.32;;;0.22;;
39848;SDS011;25518;47.878;15.914;2024-02-26T09:11:00;0.40;;;0.30;;
39848;SDS011;25518;47.878;15.914;2024-02-26T09:21:07;0.45;;;0.30;;
39848;SDS011;25518;47.878;15.914;2024-02-26T09:24:23;0.10;;;0.10;;
39848;SDS011;25518;47.878;15.914;2024-02-26T09:28:11;1.50;;;0.60;;
39848;SDS011;25518;47.878;15.914;2024-02-26T10:05:29;0.13;;;0.13;;
39848;SDS011;25518;47.878;15.914;2024-02-26T10:08:21;0.10;;;0.10;;
39848;SDS011;25518;47.878;15.914;2024-02-26T10:11:13;0.52;;;0.30;;
39848;SDS011;25518;47.878;15.914;2024-02-26T10:17:41;0.30;;;0.10;;
39848;SDS011;25518;47.878;15.914;2024-02-26T10:30:58;0.55;;;0.28;;
39848;SDS011;25518;47.878;15.914;2024-02-26T10:33:57;0.80;;;0.30;;
39848;SDS011;25518;47.878;15.914;2024-02-26T10:36:56;0.50;;;0.20;;
39848;SDS011;25518;47.878;15.914;2024-02-26T10:39:49;0.20;;;0.10;;
39848;SDS011;25518;47.878;15.914;2024-02-26T10:42:42;0.40;;;0.10;;
39848;SDS011;25518;47.878;15.914;2024-02-26T10:45:36;0.50;;;0.20;;
39848;SDS011;25518;47.878;15.914;2024-02-26T10:48:32;0.17;;;0.15;;
39848;SDS011;25518;47.878;15.914;2024-02-26T10:51:27;0.30;;;0.13;;
39848;SDS011;25518;47.878;15.914;2024-02-26T10:54:27;0.38;;;0.10;;
39848;SDS011;25518;47.878;15.914;2024-02-26T10:57:24;1.13;;;0.40;;
39848;SDS011;25518;47.878;15.914;2024-02-26T11:00:37;0.27;;;0.13;;
39848;SDS011;25518;47.878;15.914;2024-02-26T11:03:35;0.40;;;0.17;;
39848;SDS011;25518;47.878;15.914;2024-02-26T14:15:16;0.30;;;0.20;;
39848;SDS011;25518;47.878;15.914;2024-02-26T14:18:08;0.20;;;0.10;;
39848;SDS011;25518;47.878;15.914;2024-02-26T14:21:00;0.70;;;0.30;;
39848;SDS011;25518;47.878;15.914;2024-02-26T14:23:51;0.32;;;0.20;;
39848;SDS011;25518;47.878;15.914;2024-02-26T14:26:43;0.70;;;0.25;;
39848;SDS011;25518;47.878;15.914;2024-02-26T14:29:34;1.30;;;0.50;;
39848;SDS011;25518;47.878;15.914;2024-02-26T14:32:27;1.00;;;0.50;;
39848;SDS011;25518;47.878;15.914;2024-02-26T14:35:18;0.40;;;0.30;;
39848;SDS011;25518;47.878;15.914;2024-02-26T14:38:10;1.67;;;0.68;;
39848;SDS011;25518;47.878;15.914;2024-02-26T14:41:03;1.52;;;0.75;;
39848;SDS011;25518;47.878;15.914;2024-02-26T14:43:54;0.55;;;0.20;;
39848;SDS011;25518;47.878;15.914;2024-02-26T14:46:46;0.70;;;0.40;;
39848;SDS011;25518;47.878;15.914;2024-02-26T14:49:40;0.70;;;0.40;;
39848;SDS011;25518;47.878;15.914;2024-02-26T14:52:31;1.38;;;0.57;;
39848;SDS011;25518;47.878;15.914;2024-02-26T14:55:23;0.77;;;0.30;;
39848;SDS011;25518;47.878;15.914;2024-02-26T14:58:17;0.52;;;0.30;;
39848;SDS011;25518;47.878;15.914;2024-02-26T15:01:10;1.10;;;0.50;;
39848;SDS011;25518;47.878;15.914;2024-02-26T15:04:02;0.82;;;0.43;;
39848;SDS011;25518;47.878;15.914;2024-02-26T15:06:54;0.95;;;0.50;;
39848;SDS011;25518;47.878;15.914;2024-02-26T15:09:46;0.70;;;0.40;;
39848;SDS011;25518;47.878;15.914;2024-02-26T15:12:38;2.05;;;0.90;;
39848;SDS011;25518;47.878;15.914;2024-02-26T15:15:29;1.77;;;0.90;;
39848;SDS011;25518;47.878;15.914;2024-02-26T15:18:21;2.83;;;0.73;;
39848;SDS011;25518;47.878;15.914;2024-02-26T15:21:13;0.63;;;0.47;;
39848;SDS011;25518;47.878;15.914;2024-02-26T15:24:06;1.50;;;0.73;;
39848;SDS011;25518;47.878;15.914;2024-02-26T15:26:57;0.98;;;0.45;;
39848;SDS011;25518;47.878;15.914;2024-02-26T15:29:49;1.30;;;0.60;;
39848;SDS011;25518;47.878;15.914;2024-02-26T15:32:48;1.90;;;0.70;;
39848;SDS011;25518;47.878;15.914;2024-02-26T15:35:40;2.30;;;0.83;;
39848;SDS011;25518;47.878;15.914;2024-02-26T15:38:35;0.63;;;0.40;;
39848;SDS011;25518;47.878;15.914;2024-02-26T15:41:27;0.95;;;0.43;;
39848;SDS011;25518;47.878;15.914;2024-02-26T15:44:19;1.48;;;0.70;;
39848;SDS011;25518;47.878;15.914;2024-02-26T15:47:10;0.95;;;0.60;;
39848;SDS011;25518;47.878;15.914;2024-02-26T15:50:02;1.55;;;0.68;;
39848;SDS011;25518;47.878;15.914;2024-02-26T15:52:54;4.20;;;0.90;;
39848;SDS011;25518;47.878;15.914;2024-02-26T15:55:45;1.83;;;0.80;;
39848;SDS011;25518;47.878;15.914;2024-02-26T15:58:38;0.77;;;0.40;;
39848;SDS011;25518;47.878;15.914;2024-02-26T16:01:29;1.08;;;0.57;;
39848;SDS011;25518;47.878;15.914;2024-02-26T16:04:21;1.73;;;0.95;;
39848;SDS011;25518;47.878;15.914;2024-02-26T16:07:18;2.13;;;0.70;;
39848;SDS011;25518;47.878;15.914;2024-02-26T16:10:11;1.00;;;0.40;;
39848;SDS011;25518;47.878;15.914;2024-02-26T16:13:03;1.58;;;0.45;;
39848;SDS011;25518;47.878;15.914;2024-02-26T16:15:58;1.20;;;0.63;;
39848;SDS011;25518;47.878;15.914;2024-02-26T16:18:54;1.65;;;0.55;;
39848;SDS011;25518;47.878;15.914;2024-02-26T16:21:50;1.60;;;0.50;;
39848;SDS011;25518;47.878;15.914;2024-02-26T16:24:42;0.80;;;0.60;;
39848;SDS011;25518;47.878;15.914;2024-02-26T16:27:34;1.53;;;0.60;;
39848;SDS011;25518;47.878;15.914;2024-02-26T16:30:27;0.98;;;0.45;;
39848;SDS011;25518;47.878;15.914;2024-02-26T16:33:19;1.15;;;0.50;;
39848;SDS011;25518;47.878;15.914;2024-02-26T16:36:10;1.40;;;0.60;;
39848;SDS011;25518;47.878;15.914;2024-02-26T16:39:03;2.05;;;0.88;;
39848;SDS011;25518;47.878;15.914;2024-02-26T16:41:55;1.40;;;0.60;;
39848;SDS011;25518;47.878;15.914;2024-02-26T16:44:47;1.60;;;0.70;;
39848;SDS011;25518;47.878;15.914;2024-02-26T16:47:38;3.13;;;0.77;;
39848;SDS011;25518;47.878;15.914;2024-02-26T16:50:32;1.60;;;0.63;;
39848;SDS011;25518;47.878;15.914;2024-02-26T16:53:23;2.97;;;0.60;;
39848;SDS011;25518;47.878;15.914;2024-02-26T16:56:16;4.00;;;0.80;;
39848;SDS011;25518;47.878;15.914;2024-02-26T16:59:07;2.35;;;0.98;;
39848;SDS011;25518;47.878;15.914;2024-02-26T17:01:59;3.50;;;1.33;;
39848;SDS011;25518;47.878;15.914;2024-02-26T17:04:51;6.45;;;2.08;;
39848;SDS011;25518;47.878;15.914;2024-02-26T17:07:48;4.03;;;1.75;;
39848;SDS011;25518;47.878;15.914;2024-02-26T17:10:40;8.73;;;3.70;;
39848;SDS011;25518;47.878;15.914;2024-02-26T17:13:31;6.13;;;2.63;;
39848;SDS011;25518;47.878;15.914;2024-02-26T17:16:24;4.40;;;1.38;;
39848;SDS011;25518;47.878;15.914;2024-02-26T17:19:16;3.03;;;1.10;;
39848;SDS011;25518;47.878;15.914;2024-02-26T17:22:07;1.88;;;0.57;;
39848;SDS011;25518;47.878;15.914;2024-02-26T17:25:01;1.77;;;0.93;;
39848;SDS011;25518;47.878;15.914;2024-02-26T17:27:53;2.85;;;1.30;;
39848;SDS011;25518;47.878;15.914;2024-02-26T17:30:45;2.80;;;0.82;;
39848;SDS011;25518;47.878;15.914;2024-02-26T17:33:36;1.80;;;0.65;;
39848;SDS011;25518;47.878;15.914;2024-02-26T17:36:29;1.42;;;0.52;;
39848;SDS011;25518;47.878;15.914;2024-02-26T17:39:21;0.65;;;0.40;;
39848;SDS011;25518;47.878;15.914;2024-02-26T17:42:14;3.35;;;1.30;;
39848;SDS011;25518;47.878;15.914;2024-02-26T17:45:08;1.70;;;0.80;;
39848;SDS011;25518;47.878;15.914;2024-02-26T17:48:00;2.60;;;1.00;;
39848;SDS011;25518;47.878;15.914;2024-02-26T17:50:52;2.03;;;0.98;;
39848;SDS011;25518;47.878;15.914;2024-02-26T17:53:44;2.33;;;1.00;;
39848;SDS011;25518;47.878;15.914;2024-02-26T17:56:36;2.00;;;1.10;;
39848;SDS011;25518;47.878;15.914;2024-02-26T17:59:27;3.03;;;1.10;;
39848;SDS011;25518;47.878;15.914;2024-02-26T18:02:19;3.73;;;1.30;;
39848;SDS011;25518;47.878;15.914;2024-02-26T18:05:11;1.98;;;0.90;;
39848;SDS011;25518;47.878;15.914;2024-02-26T18:08:03;2.67;;;1.00;;
39848;SDS011;25518;47.878;15.914;2024-02-26T18:10:55;1.23;;;0.70;;
39848;SDS011;25518;47.878;15.914;2024-02-26T18:13:47;1.80;;;1.00;;
39848;SDS011;25518;47.878;15.914;2024-02-26T18:16:40;1.27;;;0.70;;
39848;SDS011;25518;47.878;15.914;2024-02-26T18:19:31;2.90;;;1.20;;
39848;SDS011;25518;47.878;15.914;2024-02-26T18:22:23;2.47;;;1.20;;
39848;SDS011;25518;47.878;15.914;2024-02-26T18:25:15;1.33;;;0.80;;
39848;SDS011;25518;47.878;15.914;2024-02-26T18:28:07;1.83;;;0.70;;
39848;SDS011;25518;47.878;15.914;2024-02-26T18:31:00;1.63;;;0.70;;
39848;SDS011;25518;47.878;15.914;2024-02-26T18:33:52;3.03;;;0.90;;
39848;SDS011;25518;47.878;15.914;2024-02-26T18:36:43;1.13;;;0.55;;
39848;SDS011;25518;47.878;15.914;2024-02-26T18:39:35;0.95;;;0.60;;
39848;SDS011;25518;47.878;15.914;2024-02-26T18:42:27;0.88;;;0.47;;
39848;SDS011;25518;47.878;15.914;2024-02-26T18:45:20;0.90;;;0.40;;
39848;SDS011;25518;47.878;15.914;2024-02-26T18:48:12;1.48;;;0.77;;
39848;SDS011;25518;47.878;15.914;2024-02-26T18:51:04;1.45;;;0.85;;
39848;SDS011;25518;47.878;15.914;2024-02-26T18:53:55;1.85;;;1.02;;
39848;SDS011;25518;47.878;15.914;2024-02-26T18:56:47;1.85;;;0.95;;
39848;SDS011;25518;47.878;15.914;2024-02-26T18:59:38;3.58;;;1.60;;
39848;SDS011;25518;47.878;15.914;2024-02-26T19:02:33;4.03;;;1.57;;
39848;SDS011;25518;47.878;15.914;2024-02-26T19:05:24;3.83;;;1.77;;
39848;SDS011;25518;47.878;15.914;2024-02-26T19:08:16;2.00;;;0.93;;
39848;SDS011;25518;47.878;15.914;2024-02-26T19:11:08;3.00;;;1.35;;
39848;SDS011;25518;47.878;15.914;2024-02-26T19:14:02;2.65;;;1.20;;
39848;SDS011;25518;47.878;15.914;2024-02-26T19:16:54;3.78;;;1.70;;
39848;SDS011;25518;47.878;15.914;2024-02-26T19:19:45;3.83;;;1.83;;
39848;SDS011;25518;47.878;15.914;2024-02-26T19:22:37;4.03;;;1.48;;
39848;SDS011;25518;47.878;15.914;2024-02-26T19:25:33;2.60;;;1.20;;
39848;SDS011;25518;47.878;15.914;2024-02-26T19:28:24;1.50;;;0.70;;
39848;SDS011;25518;47.878;15.914;2024-02-26T19:31:16;1.38;;;0.77;;
39848;SDS011;25518;47.878;15.914;2024-02-26T19:34:08;1.33;;;0.80;;
39848;SDS011;25518;47.878;15.914;2024-02-26T19:37:00;2.15;;;1.00;;
39848;SDS011;25518;47.878;15.914;2024-02-26T19:39:53;3.80;;;1.23;;
39848;SDS011;25518;47.878;15.914;2024-02-26T19:42:48;2.00;;;0.82;;
39848;SDS011;25518;47.878;15.914;2024-02-26T19:45:40;3.83;;;1.40;;
39848;SDS011;25518;47.878;15.914;2024-02-26T19:48:32;1.80;;;0.73;;
39848;SDS011;25518;47.878;15.914;2024-02-26T19:51:24;2.20;;;1.00;;
39848;SDS011;25518;47.878;15.914;2024-02-26T19:54:15;2.38;;;1.00;;
39848;SDS011;25518;47.878;15.914;2024-02-26T19:57:07;3.05;;;1.27;;
39848;SDS011;25518;47.878;15.914;2024-02-26T20:00:00;1.60;;;0.90;;
39848;SDS011;25518;47.878;15.914;2024-02-26T20:02:52;6.47;;;2.83;;
39848;SDS011;25518;47.878;15.914;2024-02-26T20:05:43;9.50;;;4.22;;
39848;SDS011;25518;47.878;15.914;2024-02-26T20:08:35;7.50;;;3.17;;
39848;SDS011;25518;47.878;15.914;2024-02-26T20:11:27;4.75;;;1.42;;
39848;SDS011;25518;47.878;15.914;2024-02-26T20:14:18;3.35;;;1.30;;
39848;SDS011;25518;47.878;15.914;2024-02-26T20:17:10;2.15;;;1.25;;
39848;SDS011;25518;47.878;15.914;2024-02-26T20:20:03;3.05;;;1.33;;
39848;SDS011;25518;47.878;15.914;2024-02-26T20:22:55;1.50;;;0.90;;
39848;SDS011;25518;47.878;15.914;2024-02-26T20:25:46;2.70;;;1.30;;
39848;SDS011;25518;47.878;15.914;2024-02-26T20:28:39;4.35;;;1.92;;
39848;SDS011;25518;47.878;15.914;2024-02-26T20:31:31;3.65;;;1.48;;
39848;SDS011;25518;47.878;15.914;2024-02-26T20:34:23;4.53;;;1.90;;
39848;SDS011;25518;47.878;15.914;2024-02-26T20:37:15;3.77;;;1.90;;
39848;SDS011;25518;47.878;15.914;2024-02-26T20:40:07;8.32;;;4.20;;
39848;SDS011;25518;47.878;15.914;2024-02-26T20:42:59;14.30;;;5.60;;
39848;SDS011;25518;47.878;15.914;2024-02-26T20:45:52;37.83;;;14.85;;
39848;SDS011;25518;47.878;15.914;2024-02-26T20:48:44;91.17;;;33.73;;
39848;SDS011;25518;47.878;15.914;2024-02-26T20:51:35;96.90;;;38.17;;
39848;SDS011;25518;47.878;15.914;2024-02-26T20:54:27;90.30;;;38.03;;
39848;SDS011;25518;47.878;15.914;2024-02-26T20:57:20;25.05;;;11.43;;
39848;SDS011;25518;47.878;15.914;2024-02-26T21:00:12;20.02;;;9.13;;
39848;SDS011;25518;47.878;15.914;2024-02-26T21:03:04;12.47;;;5.40;;
39848;SDS011;25518;47.878;15.914;2024-02-26T21:05:59;7.28;;;3.42;;
39848;SDS011;25518;47.878;15.914;2024-02-26T21:08:50;6.22;;;2.50;;
39848;SDS011;25518;47.878;15.914;2024-02-26T21:11:43;6.53;;;2.40;;
39848;SDS011;25518;47.878;15.914;2024-02-26T21:14:34;4.50;;;2.17;;
39848;SDS011;25518;47.878;15.914;2024-02-26T21:17:27;6.13;;;2.40;;
39848;SDS011;25518;47.878;15.914;2024-02-26T21:20:20;3.30;;;1.70;;
39848;SDS011;25518;47.878;15.914;2024-02-26T21:23:14;3.65;;;1.70;;
39848;SDS011;25518;47.878;15.914;2024-02-26T21:26:05;2.23;;;1.10;;
39848;SDS011;25518;47.878;15.914;2024-02-26T21:28:59;2.08;;;0.93;;
39848;SDS011;25518;47.878;15.914;2024-02-26T21:31:51;1.90;;;0.80;;
39848;SDS011;25518;47.878;15.914;2024-02-26T21:34:43;3.37;;;1.63;;
39848;SDS011;25518;47.878;15.914;2024-02-26T21:37:35;5.25;;;2.50;;
39848;SDS011;25518;47.878;15.914;2024-02-26T21:40:26;5.65;;;2.30;;
39848;SDS011;25518;47.878;15.914;2024-02-26T21:43:18;4.93;;;2.60;;
39848;SDS011;25518;47.878;15.914;2024-02-26T21:46:10;6.00;;;2.80;;
39848;SDS011;25518;47.878;15.914;2024-02-26T21:49:01;5.53;;;2.60;;
39848;SDS011;25518;47.878;15.914;2024-02-26T21:51:53;7.13;;;2.73;;
39848;SDS011;25518;47.878;15.914;2024-02-26T21:54:48;5.20;;;2.77;;
39848;SDS011;25518;47.878;15.914;2024-02-26T21:57:40;5.95;;;2.90;;
39848;SDS011;25518;47.878;15.914;2024-02-26T22:00:31;5.82;;;2.33;;
39848;SDS011;25518;47.878;15.914;2024-02-26T22:03:23;4.63;;;2.07;;
39848;SDS011;25518;47.878;15.914;2024-02-26T22:06:14;4.60;;;2.35;;
39848;SDS011;25518;47.878;15.914;2024-02-26T22:09:06;3.65;;;1.50;;
39848;SDS011;25518;47.878;15.914;2024-02-26T22:11:58;3.72;;;1.77;;
39848;SDS011;25518;47.878;15.914;2024-02-26T22:14:51;2.40;;;1.35;;